Latest Weather Observations for Cato Island

IDQ60801

Issued at 2:32 pm EST Thursday 14 December 2017 (issued every 30 minutes, with the page automatically refreshed every 10 minutes)

About weather observations | Map of weather stations | Latest weather observations for QLD | Other Formats
Station Details ID: 200601 Name: CATO ISLAND Lat: -23.25 Lon: 155.54 Height: 6.3 m
Data from the previous 72 hours. | See also: Recent months for locations in Queensland
Date/Time
EST
Temp
°C
App
Temp
°C
Dew
Point
°C
Rel
Hum
%
Delta-T
°C
Wind Press
QNH
hPa
Press
MSL
hPa
Rain since
9am
mm
Dir  Spd
km/h
Gust
km/h
Spd
kts
Gust
kts
14/02:30pm 26.0 - - - - - 28 32 15 17 1008.7 - -
14/02:00pm 26.2 - - - - - 26 32 14 17 1008.8 1008.9 -
14/01:30pm 25.9 - - - - - 28 32 15 17 1009.0 - -
14/01:00pm 26.0 - - - - - 28 32 15 17 1009.3 1009.3 -
14/12:30pm 25.9 - - - - - 30 33 16 18 1009.3 - -
14/12:00pm 26.4 - - - - - 30 35 16 19 1009.6 1009.6 -
14/11:30am 26.2 - - - - - 32 35 17 19 1010.0 - -
14/11:00am 26.0 - - - - - 32 37 17 20 1010.2 1010.2 -
14/10:30am 26.0 - - - - - 32 35 17 19 1010.6 - -
14/10:00am 25.9 - - - - - 32 35 17 19 1010.8 1010.7 -
14/09:30am 26.0 - - - - - 32 35 17 19 1010.8 - -
14/09:00am 25.7 - - - - - 32 37 17 20 1010.9 1010.9 -
14/08:30am 25.6 - - - - - 32 37 17 20 1011.0 - -
14/08:00am 25.5 - - - - - 33 39 18 21 1011.0 1011.0 -
14/07:30am 25.4 - - - - - 32 37 17 20 1011.0 - -
14/07:00am 25.2 - - - - - 33 39 18 21 1010.9 1010.9 -
14/06:30am 25.4 - - - - - 32 37 17 20 1010.7 - -
14/06:00am 25.4 - - - - - 32 35 17 19 1010.5 1010.6 -
14/05:30am 25.0 - - - - - 33 39 18 21 1010.2 - -
14/05:00am 24.9 - - - - - 33 37 18 20 1009.9 1009.9 -
14/04:30am 25.2 - - - - - 33 39 18 21 1009.5 - -
14/04:00am 25.0 - - - - - 35 41 19 22 1009.3 1009.3 -
14/03:30am 24.9 - - - - - 33 39 18 21 1009.0 - -
14/03:00am 24.7 - - - - - 35 41 19 22 1008.9 1009.0 -
14/02:30am 24.9 - - - - - 37 41 20 22 1009.0 - -
14/02:00am 24.9 - - - - - 37 43 20 23 1009.0 1009.1 -
14/01:30am 24.7 - - - - - 35 39 19 21 1009.6 - -
14/01:00am 25.0 - - - - - 33 39 18 21 1010.0 1009.9 -
14/12:30am 24.9 - - - - - 35 41 19 22 1010.4 - -
14/12:00am 24.9 - - - - - 35 39 19 21 1010.7 1010.7 -
 
Date/Time
EST
Temp
°C
App
Temp
°C
Dew
Point
°C
Rel
Hum
%
Delta-T
°C
Wind Press
QNH
hPa
Press
MSL
hPa
Rain since
9am
mm
Dir  Spd
km/h
Gust
km/h
Spd
kts
Gust
kts
13/11:30pm 25.2 - - - - - 35 41 19 22 1011.2 - -
13/11:00pm 25.1 - - - - - 35 41 19 22 1011.6 1011.6 -
13/10:30pm 25.1 - - - - - 33 41 18 22 1011.9 - -
13/10:00pm 25.2 - - - - - 35 39 19 21 1012.0 1012.0 -
13/09:30pm 25.3 - - - - - 35 39 19 21 1011.9 - -
13/09:00pm 25.2 - - - - - 39 44 21 24 1011.6 1011.6 -
13/08:30pm 25.2 - - - - - 37 43 20 23 1011.8 - -
13/08:00pm 24.4 - - - - - 43 56 23 30 1011.7 1011.7 -
13/07:30pm 25.2 - - - - - 39 44 21 24 1011.5 - -
13/07:00pm 25.0 - - - - - 41 54 22 29 1011.2 1011.2 -
13/06:30pm 24.4 - - - - - 30 44 16 24 1011.1 - -
13/06:00pm 25.1 - - - - - 35 39 19 21 1010.9 1010.9 -
13/05:30pm 24.9 - - - - - 44 52 24 28 1010.5 - -
13/05:00pm 25.4 - - - - - 39 43 21 23 1010.1 1010.1 -
13/04:30pm 25.3 - - - - - 37 48 20 26 1009.8 - -
13/04:00pm 25.8 - - - - - 39 43 21 23 1009.6 1009.6 -
13/03:30pm 25.8 - - - - - 33 39 18 21 1009.6 - -
13/03:00pm 25.8 - - - - - 35 41 19 22 1009.7 1009.7 -
13/02:30pm 25.8 - - - - - 37 44 20 24 1009.9 - -
13/02:00pm 26.2 - - - - - 35 43 19 23 1010.1 1010.1 -
13/01:30pm 26.1 - - - - - 35 41 19 22 1010.2 - -
13/01:00pm 26.2 - - - - - 33 41 18 22 1010.5 1010.5 -
13/12:30pm 25.9 - - - - - 35 41 19 22 1010.5 - -
13/12:00pm 25.9 - - - - - 37 43 20 23 1010.9 1010.9 -
13/11:30am 25.6 - - - - - 39 43 21 23 1011.0 - -
13/11:00am 25.7 - - - - - 37 43 20 23 1011.2 1011.2 -
13/10:30am 25.9 - - - - - 41 46 22 25 1011.2 - -
13/10:00am 25.9 - - - - - 39 48 21 26 1011.3 1011.3 -
13/09:30am 25.5 - - - - - 39 46 21 25 1011.1 - -
13/09:00am 25.4 - - - - - 39 43 21 23 1011.3 1011.3 -
13/08:30am 25.5 - - - - - 39 44 21 24 1011.3 - -
13/08:00am 25.2 - - - - - 37 44 20 24 1011.3 1011.3 -
13/07:30am 25.3 - - - - - 35 52 19 28 1011.5 - -
13/07:00am 25.2 - - - - - 39 44 21 24 1011.2 1011.2 -
13/06:30am 25.1 - - - - - 33 39 18 21 1011.0 - -
13/06:00am 25.4 - - - - - 33 41 18 22 1010.8 1010.8 -
13/05:30am 25.2 - - - - - 33 39 18 21 1010.5 - -
13/05:00am 25.0 - - - - - 35 41 19 22 1010.2 1010.3 -
13/04:30am 25.0 - - - - - 30 35 16 19 1009.9 - -
13/04:00am 25.1 - - - - - 33 39 18 21 1009.7 1009.7 -
13/03:30am 24.9 - - - - - 35 41 19 22 1009.5 - -
13/03:00am 24.8 - - - - - 35 41 19 22 1009.6 1009.6 -
13/02:30am 24.4 - - - - - 33 39 18 21 1009.7 - -
13/02:00am 24.9 - - - - - 37 43 20 23 1009.9 1009.8 -
13/01:30am 24.8 - - - - - 37 43 20 23 1010.2 - -
13/01:00am 24.9 - - - - - 37 44 20 24 1010.4 1010.4 -
13/12:30am 24.9 - - - - - 39 44 21 24 1010.8 - -
13/12:00am 24.8 - - - - - 41 46 22 25 1011.3 1011.2 -
 
Date/Time
EST
Temp
°C
App
Temp
°C
Dew
Point
°C
Rel
Hum
%
Delta-T
°C
Wind Press
QNH
hPa
Press
MSL
hPa
Rain since
9am
mm
Dir  Spd
km/h
Gust
km/h
Spd
kts
Gust
kts
12/11:30pm 25.2 - - - - - 39 44 21 24 1011.5 - -
12/11:00pm 24.8 - - - - - 39 44 21 24 1011.8 1011.8 -
12/10:30pm 25.0 - - - - - 39 44 21 24 1012.1 - -
12/10:00pm 24.9 - - - - - 41 46 22 25 1012.4 1012.5 -
12/09:30pm 24.6 - - - - - 41 46 22 25 1012.5 - -
12/09:00pm 24.8 - - - - - 43 50 23 27 1012.3 1012.4 -
12/08:30pm 24.1 - - - - - 44 54 24 29 1012.4 - -
12/08:00pm 23.6 - - - - - 37 44 20 24 1012.6 1012.5 -
12/07:37pm 23.5 - - - - - 50 69 27 37 1012.3 - -
12/07:30pm 24.5 - - - - - 41 48 22 26 1012.3 - -
12/07:00pm 23.8 - - - - - 54 63 29 34 1012.1 1012.2 -
12/06:30pm 25.3 - - - - - 43 50 23 27 1012.0 - -
12/06:00pm 25.2 - - - - - 43 46 23 25 1011.7 1011.7 -
12/05:30pm 25.3 - - - - - 41 46 22 25 1011.5 - -
12/05:00pm 25.3 - - - - - 44 50 24 27 1011.1 1011.2 -
12/04:30pm 25.2 - - - - - 37 44 20 24 1011.0 - -
12/04:00pm 24.4 - - - - - 32 37 17 20 1011.1 1011.1 -
12/03:30pm 24.5 - - - - - 43 52 23 28 1010.9 - -
12/03:00pm 24.4 - - - - - 41 50 22 27 1010.8 1010.8 -
12/02:30pm 25.0 - - - - - 41 50 22 27 1010.9 - -
12/02:00pm 25.2 - - - - - 43 50 23 27 1011.1 1011.1 -
12/01:30pm 24.3 - - - - - 46 54 25 29 1011.2 - -
12/01:00pm 25.4 - - - - - 43 50 23 27 1011.4 1011.4 -
12/12:30pm 23.3 - - - - - 41 50 22 27 1011.7 - -
12/12:00pm 23.8 - - - - - 44 56 24 30 1011.8 1011.8 -
12/11:30am 25.4 - - - - - 39 46 21 25 1012.0 - -
12/11:00am 25.3 - - - - - 37 43 20 23 1012.1 1012.1 -
12/10:30am 25.8 - - - - - 39 44 21 24 1012.1 - -
12/10:00am 26.0 - - - - - 37 44 20 24 1012.4 1012.4 -
12/09:30am 25.6 - - - - - 37 43 20 23 1012.6 - -
12/09:00am 25.5 - - - - - 35 43 19 23 1012.6 1012.6 -
12/08:30am 25.2 - - - - - 35 43 19 23 1012.7 - -
12/08:00am 25.1 - - - - - 39 43 21 23 1012.3 1012.4 -
12/07:50am 24.7 - - - - - 37 56 20 30 1012.3 - -
12/07:30am 25.3 - - - - - 41 48 22 26 1012.1 - -
12/07:00am 24.7 - - - - - 41 48 22 26 1011.9 1011.9 -
12/06:30am 25.0 - - - - - 41 46 22 25 1011.6 - -
12/06:12am 24.2 - - - - - 28 54 15 29 1011.5 - -
12/06:00am 24.3 - - - - - 26 32 14 17 1011.5 1011.6 -
12/05:30am 23.9 - - - - - 30 33 16 18 1011.4 - -
12/05:00am 22.6 - - - - - 33 48 18 26 1011.1 1011.2 -
12/04:44am 24.0 - - - - - 35 54 19 29 1010.9 - -
12/04:30am 23.8 - - - - - 35 41 19 22 1010.7 - -
12/04:00am 23.0 - - - - - 37 43 20 23 1010.5 1010.5 -
12/03:30am 24.2 - - - - - 41 48 22 26 1010.4 - -
12/03:00am 24.2 - - - - - 41 48 22 26 1010.2 1010.2 -
12/02:30am 24.4 - - - - - 43 50 23 27 1010.3 - -
12/02:00am 24.5 - - - - - 41 48 22 26 1010.6 1010.6 -
12/01:30am 24.5 - - - - - 39 46 21 25 1010.7 - -
12/01:00am 24.7 - - - - - 39 44 21 24 1011.1 1011.0 -
12/12:30am 24.8 - - - - - 39 46 21 25 1011.5 - -
12/12:00am 24.9 - - - - - 41 46 22 25 1011.9 1011.9 -
 
Date/Time
EST
Temp
°C
App
Temp
°C
Dew
Point
°C
Rel
Hum
%
Delta-T
°C
Wind Press
QNH
hPa
Press
MSL
hPa
Rain since
9am
mm
Dir  Spd
km/h
Gust
km/h
Spd
kts
Gust
kts
11/11:30pm 25.0 - - - - - 39 46 21 25 1012.4 - -
11/11:00pm 24.9 - - - - - 43 50 23 27 1012.7 1012.7 -
11/10:30pm 25.2 - - - - - 39 48 21 26 1012.9 - -
11/10:00pm 25.1 - - - - - 39 46 21 25 1013.0 1013.0 -
11/09:30pm 25.0 - - - - - 39 46 21 25 1013.0 - -
11/09:00pm 25.2 - - - - - 41 46 22 25 1012.8 1012.8 -
11/08:30pm 25.2 - - - - - 39 48 21 26 1012.6 - -
11/08:00pm 25.1 - - - - - 41 48 22 26 1012.5 1012.6 -
11/07:30pm 25.2 - - - - - 41 46 22 25 1012.5 - -
11/07:00pm 25.3 - - - - - 41 48 22 26 1012.4 1012.4 -
11/06:30pm 25.2 - - - - - 39 46 21 25 1012.2 - -
11/06:00pm 25.5 - - - - - 43 48 23 26 1012.0 1012.0 -
11/05:30pm 25.4 - - - - - 43 48 23 26 1011.7 - -
11/05:00pm 25.4 - - - - - 44 52 24 28 1011.3 1011.3 -
11/04:30pm 25.8 - - - - - 41 48 22 26 1011.2 - -
11/04:00pm 25.8 - - - - - 37 43 20 23 1011.3 1011.3 -
11/03:30pm 25.7 - - - - - 35 43 19 23 1011.3 - -
11/03:00pm 25.6 - - - - - 35 41 19 22 1011.4 1011.4 -

Other Formats:

Comma delimited format used in spreadsheet applications
http://www.bom.gov.au/fwo/IDQ60801/IDQ60801.94394.axf

JavaScript Object Notation format (JSON) in row-major order
http://www.bom.gov.au/fwo/IDQ60801/IDQ60801.94394.json